createdAt,value
2018-12-26T00:00:03.406Z,69.75
2018-12-26T00:02:31.818Z,71.05
2018-12-26T00:05:00.464Z,74.62
2018-12-26T00:07:28.849Z,72.85
2018-12-26T00:09:57.506Z,66.72
2018-12-26T00:12:26.192Z,73.85
2018-12-26T00:14:54.584Z,74.62
2018-12-26T00:17:22.991Z,78.05
2018-12-26T00:19:51.440Z,81.20
2018-12-26T00:22:19.767Z,76.90
2018-12-26T00:24:48.171Z,78.50
2018-12-26T00:27:16.871Z,78.72
2018-12-26T00:29:45.278Z,69.58
2018-12-26T00:32:13.679Z,81.42
2018-12-26T00:34:42.072Z,76.22
2018-12-26T00:37:10.814Z,75.97
2018-12-26T00:39:39.486Z,73.60
2018-12-26T00:42:07.933Z,78.62
2018-12-26T00:44:36.335Z,83.30
2018-12-26T00:47:04.721Z,74.80
2018-12-26T00:49:33.111Z,88.20
2018-12-26T00:52:01.789Z,90.35
2018-12-26T00:54:30.477Z,91.22
2018-12-26T00:56:58.871Z,90.75
2018-12-26T00:59:27.270Z,85.40
2018-12-26T01:01:55.663Z,94.10
2018-12-26T01:04:24.051Z,87.08
2018-12-26T01:06:52.782Z,86.50
2018-12-26T01:09:21.465Z,82.40
2018-12-26T01:11:49.854Z,92.62
2018-12-26T01:14:18.275Z,84.77
2018-12-26T01:16:46.663Z,82.22
2018-12-26T01:19:15.055Z,90.05
2018-12-26T01:21:43.766Z,88.85
2018-12-26T01:24:12.454Z,84.70
2018-12-26T01:26:41.137Z,97.40
2018-12-26T01:29:09.532Z,83.85
2018-12-26T01:31:38.205Z,88.30
2018-12-26T01:34:06.893Z,79.40
2018-12-26T01:36:35.295Z,92.57
2018-12-26T01:39:04.756Z,88.10
2018-12-26T01:41:33.170Z,82.20
2018-12-26T01:44:01.837Z,88.95
2018-12-26T01:46:30.521Z,84.62
2018-12-26T01:48:59.209Z,96.30
2018-12-26T01:51:27.601Z,87.25
2018-12-26T01:53:56.273Z,82.65
2018-12-26T01:56:28.116Z,90.00
2018-12-26T01:58:55.092Z,88.33
2018-12-26T02:01:23.604Z,94.22
2018-12-26T02:03:52.423Z,90.25
2018-12-26T02:06:20.884Z,91.70
2018-12-26T02:08:49.289Z,82.55
2018-12-26T02:11:17.688Z,86.08
2018-12-26T02:13:46.080Z,92.55
2018-12-26T02:16:14.489Z,96.78
2018-12-26T02:18:43.235Z,88.80
2018-12-26T02:21:11.619Z,80.60
2018-12-26T02:23:40.024Z,96.97
2018-12-26T02:26:08.426Z,90.20
2018-12-26T02:28:36.819Z,94.67
2018-12-26T02:31:06.038Z,84.13
2018-12-26T02:33:34.427Z,91.50
2018-12-26T02:36:02.970Z,104.12
2018-12-26T02:38:31.308Z,95.95
2018-12-26T02:40:59.704Z,87.45
2018-12-26T02:43:28.095Z,95.32
2018-12-26T02:45:56.506Z,98.17
2018-12-26T02:48:25.217Z,110.48
2018-12-26T02:50:54.000Z,96.45
2018-12-26T02:53:22.394Z,86.10
2018-12-26T02:55:50.792Z,85.70
2018-12-26T02:58:19.447Z,91.32
2018-12-26T03:00:48.130Z,90.25
2018-12-26T03:03:16.819Z,94.15
2018-12-26T03:05:45.220Z,89.60
2018-12-26T03:08:13.612Z,92.57
2018-12-26T03:10:42.020Z,87.47
2018-12-26T03:13:10.463Z,88.97
2018-12-26T03:15:38.927Z,91.32
2018-12-26T03:18:07.338Z,91.12
2018-12-26T03:20:35.733Z,98.97
2018-12-26T03:23:04.127Z,88.87
2018-12-26T03:25:32.841Z,90.53
2018-12-26T03:28:01.236Z,86.60
2018-12-26T03:30:29.633Z,92.08
2018-12-26T03:32:58.309Z,74.60
2018-12-26T03:35:26.679Z,81.97
2018-12-26T03:37:55.134Z,82.12
2018-12-26T03:40:23.882Z,91.22
2018-12-26T03:42:52.721Z,68.72
2018-12-26T03:45:21.482Z,91.82
2018-12-26T03:47:50.809Z,90.10
2018-12-26T03:50:19.378Z,101.85
2018-12-26T03:52:47.828Z,81.02
2018-12-26T03:55:16.558Z,79.80
2018-12-26T03:57:44.948Z,88.52
2018-12-26T04:00:13.621Z,78.42
2018-12-26T04:02:42.036Z,91.92
2018-12-26T04:05:10.418Z,81.05
2018-12-26T04:07:39.169Z,91.40
2018-12-26T04:10:07.852Z,87.33
2018-12-26T04:12:36.744Z,92.85
2018-12-26T04:15:05.597Z,93.72
2018-12-26T04:17:34.308Z,87.42
2018-12-26T04:20:03.037Z,84.15
2018-12-26T04:22:31.695Z,85.28
2018-12-26T04:25:00.378Z,83.17
2018-12-26T04:27:29.065Z,78.50
2018-12-26T04:29:57.476Z,74.05
2018-12-26T04:32:25.876Z,82.20
2018-12-26T04:34:54.415Z,80.55
2018-12-26T04:37:22.745Z,71.53
2018-12-26T04:39:51.138Z,73.50
2018-12-26T04:42:19.850Z,80.90
2018-12-26T04:44:48.255Z,82.55
2018-12-26T04:47:16.914Z,80.72
2018-12-26T04:49:45.321Z,77.15
2018-12-26T04:52:13.709Z,85.20
2018-12-26T04:54:42.373Z,80.67
2018-12-26T04:57:10.780Z,80.45
2018-12-26T04:59:39.171Z,86.47
2018-12-26T05:02:07.919Z,86.37
2018-12-26T05:04:36.329Z,75.52
2018-12-26T05:07:04.715Z,83.20
2018-12-26T05:09:33.185Z,90.07
2018-12-26T05:12:01.829Z,82.88
2018-12-26T05:14:30.219Z,72.17
2018-12-26T05:16:58.629Z,77.60
2018-12-26T05:19:27.020Z,82.92
2018-12-26T05:21:55.753Z,84.10
2018-12-26T05:24:24.138Z,88.52
2018-12-26T05:26:52.818Z,83.22
2018-12-26T05:29:21.507Z,82.47
2018-12-26T05:31:50.189Z,81.55
2018-12-26T05:34:18.874Z,81.82
2018-12-26T05:36:47.265Z,79.53
2018-12-26T05:39:15.657Z,80.57
2018-12-26T05:41:44.065Z,82.70
2018-12-26T05:44:12.457Z,76.72
2018-12-26T05:46:40.851Z,89.03
2018-12-26T05:49:09.254Z,77.62
2018-12-26T05:51:37.644Z,74.67
2018-12-26T05:54:06.036Z,74.12
2018-12-26T05:56:34.439Z,77.17
2018-12-26T05:59:02.827Z,87.37
2018-12-26T06:01:31.552Z,82.37
2018-12-26T06:03:59.957Z,77.72
2018-12-26T06:06:28.581Z,80.90
2018-12-26T06:08:56.982Z,79.65
2018-12-26T06:11:25.374Z,73.20
2018-12-26T06:13:54.061Z,78.00
2018-12-26T06:16:22.466Z,86.28
2018-12-26T06:18:50.855Z,71.17
2018-12-26T06:21:19.258Z,74.90
2018-12-26T06:23:47.652Z,65.35
2018-12-26T06:26:16.076Z,81.87
2018-12-26T06:28:44.742Z,75.40
2018-12-26T06:31:13.533Z,81.35
2018-12-26T06:33:41.938Z,81.30
2018-12-26T06:36:10.326Z,88.35
2018-12-26T06:38:38.972Z,85.07
2018-12-26T06:41:07.381Z,82.00
2018-12-26T06:43:36.038Z,81.00
2018-12-26T06:46:04.429Z,94.10
2018-12-26T06:48:33.079Z,81.17
2018-12-26T06:51:01.471Z,86.97
2018-12-26T06:53:29.861Z,85.03
2018-12-26T06:55:58.549Z,77.35
2018-12-26T06:58:26.939Z,81.05
2018-12-26T07:00:55.331Z,83.62
2018-12-26T07:03:26.028Z,86.75
2018-12-26T07:05:54.206Z,88.30
2018-12-26T07:08:22.594Z,78.95
2018-12-26T07:10:51.057Z,91.92
2018-12-26T07:13:19.694Z,101.92
2018-12-26T07:15:48.087Z,79.27
2018-12-26T07:18:16.496Z,89.25
2018-12-26T07:20:45.212Z,87.20
2018-12-26T07:23:13.610Z,86.70
2018-12-26T07:25:42.022Z,83.00
2018-12-26T07:28:10.747Z,87.80
2018-12-26T07:30:39.442Z,82.17
2018-12-26T07:33:07.843Z,94.42
2018-12-26T07:35:36.234Z,82.02
2018-12-26T07:38:04.623Z,87.67
2018-12-26T07:40:33.028Z,86.90
2018-12-26T07:43:01.414Z,82.30
2018-12-26T07:45:29.810Z,90.72
2018-12-26T07:47:58.215Z,75.40
2018-12-26T07:50:26.606Z,80.20
2018-12-26T07:52:55.249Z,87.35
2018-12-26T07:55:23.940Z,79.30
2018-12-26T07:57:52.333Z,84.17
2018-12-26T08:00:20.722Z,77.82
2018-12-26T08:02:49.126Z,81.37
2018-12-26T08:05:17.863Z,89.47
2018-12-26T08:07:46.551Z,79.92
2018-12-26T08:10:14.942Z,83.50
2018-12-26T08:12:43.383Z,88.95
2018-12-26T08:15:11.789Z,80.40
2018-12-26T08:17:40.186Z,79.12
2018-12-26T08:20:08.589Z,103.60
2018-12-26T08:22:37.064Z,79.60
2018-12-26T08:25:05.525Z,79.50
2018-12-26T08:27:33.923Z,78.25
2018-12-26T08:30:02.313Z,83.78
2018-12-26T08:32:30.723Z,72.60
2018-12-26T08:34:59.112Z,76.45
2018-12-26T08:37:27.514Z,61.55
2018-12-26T08:39:55.918Z,68.65
2018-12-26T08:42:24.565Z,76.25
2018-12-26T08:44:53.256Z,67.50
2018-12-26T08:47:21.649Z,81.35
2018-12-26T08:49:50.039Z,64.58
2018-12-26T08:52:18.441Z,75.25
2018-12-26T08:54:46.840Z,69.85
2018-12-26T08:57:15.237Z,71.00
2018-12-26T08:59:43.628Z,71.40
2018-12-26T09:02:12.036Z,68.92
2018-12-26T09:04:40.425Z,64.20
2018-12-26T09:07:09.069Z,76.22
2018-12-26T09:09:37.472Z,73.25
2018-12-26T09:12:06.134Z,80.17
2018-12-26T09:14:34.544Z,71.82
2018-12-26T09:17:02.935Z,72.87
2018-12-26T09:19:31.319Z,75.12
2018-12-26T09:21:59.731Z,67.72
2018-12-26T09:24:28.117Z,80.83
2018-12-26T09:26:57.518Z,71.95
2018-12-26T09:29:26.897Z,77.03
2018-12-26T09:31:55.290Z,62.43
2018-12-26T09:34:23.687Z,77.30
2018-12-26T09:36:52.394Z,77.78
2018-12-26T09:39:21.064Z,72.27
2018-12-26T09:41:49.454Z,78.28
2018-12-26T09:44:18.098Z,68.37
2018-12-26T09:46:46.487Z,61.60
2018-12-26T09:49:15.194Z,66.30
2018-12-26T09:51:43.593Z,63.95
2018-12-26T09:54:12.262Z,66.97
2018-12-26T09:56:40.673Z,61.58
2018-12-26T09:59:09.324Z,63.92
2018-12-26T10:01:38.014Z,72.67
2018-12-26T10:04:06.695Z,64.00
2018-12-26T10:06:35.330Z,73.07
2018-12-26T10:09:05.447Z,78.87
2018-12-26T10:11:33.852Z,67.67
2018-12-26T10:14:02.570Z,78.90
2018-12-26T10:16:30.961Z,73.57
2018-12-26T10:18:59.628Z,66.60
2018-12-26T10:21:28.025Z,72.20
2018-12-26T10:23:56.410Z,72.27
2018-12-26T10:26:24.899Z,71.00
2018-12-26T10:29:00.761Z,76.12
2018-12-26T10:31:23.398Z,72.10
2018-12-26T10:33:51.807Z,70.80
2018-12-26T10:36:20.197Z,85.57
2018-12-26T10:38:48.590Z,85.53
2018-12-26T10:41:17.293Z,82.80
2018-12-26T10:43:45.973Z,91.95
2018-12-26T10:46:14.662Z,92.97
2018-12-26T10:48:43.074Z,76.45
2018-12-26T10:51:11.461Z,79.07
2018-12-26T10:53:39.849Z,87.35
2018-12-26T10:56:08.253Z,80.67
2018-12-26T10:58:36.649Z,107.05
2018-12-26T11:01:05.043Z,84.92
2018-12-26T11:03:33.453Z,73.10
2018-12-26T11:06:01.843Z,70.42
2018-12-26T11:08:30.488Z,74.82
2018-12-26T11:10:59.132Z,79.72
2018-12-26T11:13:27.610Z,72.27
2018-12-26T11:15:56.473Z,70.00
2018-12-26T11:18:25.326Z,75.52
2018-12-26T11:20:54.481Z,75.72
2018-12-26T11:23:22.820Z,64.03
2018-12-26T11:25:51.486Z,68.50
2018-12-26T11:28:20.174Z,61.60
2018-12-26T11:30:48.844Z,64.87
2018-12-26T11:33:17.541Z,65.75
2018-12-26T11:35:46.229Z,72.47
2018-12-26T11:38:14.637Z,66.40
2018-12-26T11:40:43.399Z,83.85
2018-12-26T11:43:11.791Z,81.47
2018-12-26T11:45:40.541Z,76.22
2018-12-26T11:48:08.936Z,66.42
2018-12-26T11:50:37.339Z,73.67
2018-12-26T11:53:05.968Z,79.90
2018-12-26T11:55:34.425Z,72.97
2018-12-26T11:58:02.831Z,72.12
2018-12-26T12:00:31.258Z,69.15
2018-12-26T12:02:59.934Z,69.45
2018-12-26T12:05:28.390Z,76.30
2018-12-26T12:07:56.777Z,72.75
2018-12-26T12:10:25.259Z,69.32
2018-12-26T12:12:53.975Z,73.17
2018-12-26T12:15:22.749Z,78.92
2018-12-26T12:17:51.538Z,68.47
2018-12-26T12:20:20.221Z,69.87
2018-12-26T12:22:48.855Z,63.55
2018-12-26T12:25:17.261Z,67.30
2018-12-26T12:27:45.652Z,74.95
2018-12-26T12:30:14.302Z,67.00
2018-12-26T12:32:42.705Z,69.62
2018-12-26T12:35:11.096Z,63.73
2018-12-26T12:37:39.559Z,70.78
2018-12-26T12:40:10.606Z,73.72
2018-12-26T12:42:39.073Z,66.82
2018-12-26T12:45:08.514Z,72.20
2018-12-26T12:47:36.992Z,73.83
2018-12-26T12:50:07.463Z,68.07
2018-12-26T12:52:35.856Z,74.75
2018-12-26T12:55:05.043Z,65.20
2018-12-26T12:57:33.432Z,82.02
2018-12-26T13:00:02.170Z,77.87
2018-12-26T13:02:30.572Z,73.92
2018-12-26T13:04:58.961Z,69.62
2018-12-26T13:07:27.363Z,76.90
2018-12-26T13:09:55.758Z,67.75
2018-12-26T13:12:24.157Z,70.62
2018-12-26T13:14:52.847Z,78.22
2018-12-26T13:17:21.534Z,74.37
2018-12-26T13:19:49.927Z,72.60
2018-12-26T13:22:18.320Z,72.30
2018-12-26T13:24:46.972Z,79.07
2018-12-26T13:27:15.366Z,79.47
2018-12-26T13:29:43.758Z,92.17
2018-12-26T13:32:12.166Z,82.25
2018-12-26T13:34:40.557Z,83.50
2018-12-26T13:37:08.949Z,85.53
2018-12-26T13:39:37.359Z,78.75
2018-12-26T13:42:05.751Z,95.12
2018-12-26T13:44:34.501Z,90.75
2018-12-26T13:47:02.859Z,89.75
2018-12-26T13:49:31.597Z,95.85
2018-12-26T13:52:00.269Z,79.70
2018-12-26T13:54:28.688Z,78.65
2018-12-26T13:56:57.081Z,86.90
2018-12-26T13:59:25.814Z,92.90
2018-12-26T14:01:54.204Z,88.72
2018-12-26T14:04:22.598Z,88.10
2018-12-26T14:06:50.998Z,94.83
2018-12-26T14:09:19.392Z,92.30
2018-12-26T14:11:48.129Z,94.25
2018-12-26T14:14:16.806Z,97.02
2018-12-26T14:16:45.221Z,87.15
2018-12-26T14:19:13.861Z,90.32
2018-12-26T14:21:42.266Z,90.67
2018-12-26T14:24:10.658Z,91.87
2018-12-26T14:26:39.042Z,91.50
2018-12-26T14:29:07.794Z,89.40
2018-12-26T14:31:36.494Z,111.22
2018-12-26T14:34:05.168Z,109.05
2018-12-26T14:36:33.862Z,100.12
2018-12-26T14:39:02.540Z,101.97
2018-12-26T14:41:30.938Z,105.47
2018-12-26T14:43:59.601Z,103.85
2018-12-26T14:46:28.262Z,103.07
2018-12-26T14:48:56.651Z,98.65
2018-12-26T14:51:26.501Z,97.27
2018-12-26T14:53:55.473Z,106.63
2018-12-26T14:56:24.109Z,99.28
2018-12-26T14:58:52.578Z,104.30
2018-12-26T15:01:21.231Z,106.80
2018-12-26T15:03:49.905Z,111.62
2018-12-26T15:06:18.298Z,104.25
2018-12-26T15:08:46.763Z,112.57
2018-12-26T15:11:15.453Z,102.65
2018-12-26T15:13:44.139Z,106.25
2018-12-26T15:16:12.531Z,108.47
2018-12-26T15:18:41.202Z,102.87
2018-12-26T15:21:09.834Z,115.17
2018-12-26T15:23:38.227Z,112.05
2018-12-26T15:26:06.657Z,108.25
2018-12-26T15:28:35.051Z,98.15
2018-12-26T15:31:03.443Z,112.80
2018-12-26T15:33:31.856Z,108.55
2018-12-26T15:36:00.486Z,112.25
2018-12-26T15:38:28.936Z,111.05
2018-12-26T15:40:57.642Z,118.90
2018-12-26T15:43:26.036Z,127.87
2018-12-26T15:45:54.439Z,120.53
2018-12-26T15:48:22.859Z,111.75
2018-12-26T15:50:51.258Z,113.83
2018-12-26T15:53:19.659Z,114.42
2018-12-26T15:55:48.078Z,116.73
2018-12-26T15:58:16.470Z,113.65
2018-12-26T16:00:44.876Z,117.75
2018-12-26T16:03:13.280Z,102.22
2018-12-26T16:05:41.935Z,116.77
2018-12-26T16:08:10.639Z,110.95
2018-12-26T16:10:39.307Z,116.75
2018-12-26T16:13:07.725Z,112.85
2018-12-26T16:15:36.120Z,119.82
2018-12-26T16:18:04.516Z,114.85
2018-12-26T16:20:32.930Z,121.50
2018-12-26T16:23:01.344Z,125.30
2018-12-26T16:25:29.745Z,120.87
2018-12-26T16:27:58.148Z,130.85
2018-12-26T16:30:26.565Z,114.90
2018-12-26T16:32:55.231Z,125.02
2018-12-26T16:35:23.914Z,121.07
2018-12-26T16:38:01.290Z,117.67
2018-12-26T16:40:23.027Z,130.57
2018-12-26T16:42:51.714Z,118.37
2018-12-26T16:45:20.131Z,125.72
2018-12-26T16:47:48.529Z,111.47
2018-12-26T16:50:16.927Z,113.20
2018-12-26T16:52:45.345Z,119.13
2018-12-26T16:55:13.816Z,116.35
2018-12-26T16:57:42.215Z,117.25
2018-12-26T17:00:14.951Z,126.70
2018-12-26T17:02:43.149Z,129.23
2018-12-26T17:05:11.819Z,137.50
2018-12-26T17:07:40.520Z,120.13
2018-12-26T17:10:13.504Z,109.30
2018-12-26T17:12:41.920Z,124.02
2018-12-26T17:15:10.322Z,114.30
2018-12-26T17:17:38.973Z,112.60
2018-12-26T17:20:08.429Z,114.20
2018-12-26T17:22:37.141Z,115.35
2018-12-26T17:25:05.542Z,116.45
2018-12-26T17:27:34.194Z,126.27
2018-12-26T17:30:02.597Z,123.35
2018-12-26T17:32:30.996Z,119.55
2018-12-26T17:34:59.752Z,115.70
2018-12-26T17:37:28.395Z,130.47
2018-12-26T17:39:56.798Z,116.35
2018-12-26T17:42:25.225Z,119.50
2018-12-26T17:44:53.615Z,124.35
2018-12-26T17:47:22.360Z,121.53
2018-12-26T17:49:50.775Z,113.83
2018-12-26T17:52:19.425Z,119.35
2018-12-26T17:54:48.967Z,120.55
2018-12-26T17:57:17.378Z,117.10
2018-12-26T17:59:49.914Z,115.15
2018-12-26T18:02:21.376Z,123.20
2018-12-26T18:04:49.778Z,130.78
2018-12-26T18:07:18.446Z,150.15
2018-12-26T18:09:46.831Z,134.80
2018-12-26T18:12:15.567Z,140.60
2018-12-26T18:14:44.254Z,150.22
2018-12-26T18:17:12.653Z,133.63
2018-12-26T18:19:41.050Z,121.28
2018-12-26T18:22:09.800Z,133.93
2018-12-26T18:24:38.200Z,130.45
2018-12-26T18:27:06.613Z,128.38
2018-12-26T18:29:35.253Z,133.85
2018-12-26T18:32:03.653Z,127.12
2018-12-26T18:34:32.067Z,147.87
2018-12-26T18:37:00.473Z,135.90
2018-12-26T18:39:29.167Z,135.18
2018-12-26T18:41:57.583Z,122.58
2018-12-26T18:44:25.989Z,121.28
2018-12-26T18:46:54.385Z,135.93
2018-12-26T18:49:22.802Z,127.85
2018-12-26T18:51:51.201Z,122.05
2018-12-26T18:54:19.596Z,111.50
2018-12-26T18:56:48.013Z,118.65
2018-12-26T18:59:16.407Z,118.40
2018-12-26T19:01:45.089Z,128.87
2018-12-26T19:04:14.597Z,131.67
2018-12-26T19:06:43.002Z,121.95
2018-12-26T19:09:11.658Z,142.60
2018-12-26T19:11:40.360Z,123.95
2018-12-26T19:14:09.030Z,131.97
2018-12-26T19:16:37.429Z,134.52
2018-12-26T19:19:06.198Z,136.12
2018-12-26T19:21:34.885Z,137.77
2018-12-26T19:24:03.289Z,120.17
2018-12-26T19:26:31.785Z,153.30
2018-12-26T19:29:00.531Z,149.95
2018-12-26T19:31:28.938Z,149.85
2018-12-26T19:33:57.351Z,140.43
2018-12-26T19:36:25.749Z,138.05
2018-12-26T19:38:54.144Z,131.90
2018-12-26T19:41:22.835Z,127.05
2018-12-26T19:43:51.524Z,133.12
2018-12-26T19:46:19.925Z,125.53
2018-12-26T19:48:48.348Z,132.37
2018-12-26T19:51:16.764Z,124.92
2018-12-26T19:53:45.172Z,129.93
2018-12-26T19:56:13.825Z,130.32
2018-12-26T19:58:42.238Z,130.30
2018-12-26T20:01:10.991Z,136.35
2018-12-26T20:03:39.682Z,127.42
2018-12-26T20:06:08.089Z,131.10
2018-12-26T20:08:36.489Z,130.10
2018-12-26T20:11:05.224Z,140.15
2018-12-26T20:13:33.907Z,134.45
2018-12-26T20:16:02.596Z,112.52
2018-12-26T20:18:31.017Z,115.60
2018-12-26T20:20:59.657Z,125.30
2018-12-26T20:23:28.079Z,138.68
2018-12-26T20:25:56.472Z,134.78
2018-12-26T20:28:24.873Z,132.87
2018-12-26T20:30:53.359Z,126.20
2018-12-26T20:33:21.799Z,125.72
2018-12-26T20:35:52.474Z,130.05
2018-12-26T20:38:20.595Z,119.37
2018-12-26T20:40:49.254Z,118.72
2018-12-26T20:43:17.651Z,125.70
2018-12-26T20:45:46.416Z,128.72
2018-12-26T20:48:14.818Z,124.75
2018-12-26T20:50:45.932Z,125.85
2018-12-26T20:53:14.831Z,141.80
2018-12-26T20:55:43.516Z,144.65
2018-12-26T20:58:11.919Z,137.18
2018-12-26T21:00:40.333Z,129.87
2018-12-26T21:03:08.972Z,136.88
2018-12-26T21:05:37.370Z,138.97
2018-12-26T21:08:05.777Z,130.55
2018-12-26T21:10:34.175Z,142.40
2018-12-26T21:13:02.883Z,137.10
2018-12-26T21:15:31.289Z,122.62
2018-12-26T21:17:59.702Z,136.85
2018-12-26T21:20:28.163Z,138.32
2018-12-26T21:22:56.560Z,131.43
2018-12-26T21:25:24.975Z,156.02
2018-12-26T21:27:53.378Z,144.82
2018-12-26T21:30:21.782Z,135.57
2018-12-26T21:32:50.524Z,140.88
2018-12-26T21:35:18.921Z,152.15
2018-12-26T21:37:47.317Z,133.10
2018-12-26T21:40:15.733Z,148.90
2018-12-26T21:42:44.451Z,146.02
2018-12-26T21:45:13.153Z,142.77
2018-12-26T21:47:41.569Z,129.25
2018-12-26T21:50:11.108Z,131.93
2018-12-26T21:52:39.503Z,128.82
2018-12-26T21:55:08.188Z,139.35
2018-12-26T21:57:36.584Z,143.95
2018-12-26T22:00:05.605Z,134.32
2018-12-26T22:02:34.009Z,139.35
2018-12-26T22:05:02.440Z,140.10
2018-12-26T22:07:30.827Z,144.02
2018-12-26T22:09:59.489Z,151.05
2018-12-26T22:12:28.168Z,137.47
2018-12-26T22:14:56.856Z,131.30
2018-12-26T22:17:25.261Z,144.00
2018-12-26T22:19:54.025Z,136.05
2018-12-26T22:22:22.708Z,135.95
2018-12-26T22:24:51.408Z,138.68
2018-12-26T22:27:19.829Z,132.27
2018-12-26T22:29:48.231Z,148.17
2018-12-26T22:32:16.624Z,141.15
2018-12-26T22:34:45.050Z,137.75
2018-12-26T22:37:13.445Z,151.50
2018-12-26T22:39:42.184Z,126.80
2018-12-26T22:42:10.868Z,127.60
2018-12-26T22:44:39.547Z,147.82
2018-12-26T22:47:08.238Z,125.02
2018-12-26T22:49:36.649Z,145.20
2018-12-26T22:52:05.062Z,138.90
2018-12-26T22:54:33.460Z,132.55
2018-12-26T22:57:01.934Z,126.55
2018-12-26T22:59:31.559Z,134.40
2018-12-26T23:02:00.714Z,123.70
2018-12-26T23:04:29.658Z,135.35
2018-12-26T23:06:58.339Z,134.75
2018-12-26T23:09:26.820Z,138.88
2018-12-26T23:11:55.503Z,128.62
2018-12-26T23:14:24.194Z,129.03
2018-12-26T23:16:52.609Z,135.68
2018-12-26T23:19:21.356Z,140.05
2018-12-26T23:21:50.044Z,132.00
2018-12-26T23:24:18.729Z,140.52
2018-12-26T23:26:47.421Z,130.00
2018-12-26T23:29:15.819Z,137.18
2018-12-26T23:31:44.585Z,135.07
2018-12-26T23:34:13.268Z,134.95
2018-12-26T23:36:41.675Z,136.92
2018-12-26T23:39:10.088Z,132.18
2018-12-26T23:41:38.485Z,128.12
2018-12-26T23:44:07.205Z,140.00
2018-12-26T23:46:35.884Z,116.57
2018-12-26T23:49:04.564Z,126.15
2018-12-26T23:51:32.977Z,136.50
2018-12-26T23:54:01.376Z,134.57
2018-12-26T23:56:29.849Z,139.22
2018-12-26T23:58:58.254Z,135.63
